Terminal Aerodrome Forecast
Issued by NWS

Home | Current Version | Previous Version | Graphics & Text | Print | Product List | Glossary On
Versions: 1 2 3 4 5 6 7 8 9 10 11 12 13 14 15 16
000
FTUS43 KIWX 241100
TAFSBN
TAF
KSBN 241130Z 2412/2512 25007KT P6SM OVC025
     FM241500 28010KT P6SM BKN030
     FM250000 VRB03KT P6SM BKN035
     FM251000 10009KT P6SM -SHSN OVC030=

USA.gov is the U.S. government's official web portal to all federal, state and local government web resources and services.